Time;durP1;ratioP1;P1;durP2;ratioP2;P2;SDS_P1;SDS_P2;PMS_P1;PMS_P2;Temp;Humidity;BMP_temperature;BMP_pressure;BME280_temperature;BME280_humidity;BME280_pressure;Samples;Min_cycle;Max_cycle;Signal;HPM_P1;HPM_P2
2021/09/22 00:00:27;;;;;;;;;36.75;31.50;;;;;18.10;55.12;102364.56;2079552;28;47450;-52
2021/09/22 00:01:28;;;;;;;;;33.75;29.75;;;;;18.10;54.88;102368.13;2076528;28;47158;-55
2021/09/22 00:02:28;;;;;;;;;31.25;30.50;;;;;18.09;54.94;102361.00;2073308;28;46386;-54
2021/09/22 00:03:29;;;;;;;;;29.75;28.25;;;;;18.09;55.03;102362.81;2080959;28;47276;-54
2021/09/22 00:04:29;;;;;;;;;30.75;30.00;;;;;18.08;54.95;102351.19;2082598;28;47479;-54
2021/09/22 00:05:30;;;;;;;;;36.50;33.50;;;;;18.08;55.25;102350.28;2079378;28;47370;-53
2021/09/22 00:06:30;;;;;;;;;33.75;31.25;;;;;18.06;54.86;102353.03;2078785;28;45976;-54
2021/09/22 00:07:31;;;;;;;;;37.00;31.00;;;;;18.07;55.13;102353.91;2079329;28;47173;-54
2021/09/22 00:08:32;;;;;;;;;37.25;32.75;;;;;18.06;55.20;102350.34;2082422;28;46527;-55
2021/09/22 00:09:32;;;;;;;;;33.00;30.25;;;;;18.05;54.92;102353.94;2086734;28;48129;-54
2021/09/22 00:10:33;;;;;;;;;36.75;31.25;;;;;18.05;54.92;102345.00;2081813;28;47066;-54
2021/09/22 00:11:33;;;;;;;;;36.75;32.00;;;;;18.05;54.95;102347.69;2082295;28;47244;-54
2021/09/22 00:12:34;;;;;;;;;32.50;30.25;;;;;18.03;55.13;102347.72;2081968;28;47080;-55
2021/09/22 00:13:34;;;;;;;;;31.25;29.50;;;;;18.03;55.04;102352.19;2073495;28;46190;-55
2021/09/22 00:14:35;;;;;;;;;31.00;29.25;;;;;18.02;55.40;102347.75;2077514;28;48309;-55
2021/09/22 00:15:36;;;;;;;;;34.50;32.25;;;;;18.02;54.98;102350.44;2079173;28;47097;-54
2021/09/22 00:16:36;;;;;;;;;35.50;33.25;;;;;18.01;55.26;102348.69;2086127;28;46815;-55
2021/09/22 00:17:37;;;;;;;;;33.50;31.50;;;;;18.01;55.09;102344.19;2085965;28;47225;-55
2021/09/22 00:18:37;;;;;;;;;34.75;31.00;;;;;18.01;55.13;102346.00;2079150;28;47338;-55
2021/09/22 00:19:37;;;;;;;;;31.75;30.75;;;;;18.01;55.06;102351.38;2078854;28;47148;-55
2021/09/22 00:20:38;;;;;;;;;35.75;32.50;;;;;18.01;54.84;102348.69;2072240;28;47048;-55
2021/09/22 00:21:39;;;;;;;;;35.25;30.75;;;;;17.99;55.04;102345.16;2080506;28;48654;-55
2021/09/22 00:22:39;;;;;;;;;32.50;28.75;;;;;17.99;54.81;102345.16;2082425;28;47201;-55
2021/09/22 00:23:40;;;;;;;;;32.75;29.00;;;;;17.98;54.99;102344.28;2081651;28;47325;-53
2021/09/22 00:24:40;;;;;;;;;38.50;33.75;;;;;17.98;54.96;102346.97;2081858;28;47121;-53
2021/09/22 00:25:41;;;;;;;;;36.25;32.00;;;;;17.96;55.14;102351.50;2081864;28;47171;-55
2021/09/22 00:26:41;;;;;;;;;34.75;31.50;;;;;17.96;55.01;102346.13;2083280;28;48422;-54
2021/09/22 00:27:42;;;;;;;;;33.75;31.25;;;;;17.96;54.88;102353.31;2083758;28;47420;-56
2021/09/22 00:28:42;;;;;;;;;38.00;34.25;;;;;17.93;54.93;102349.78;2082304;28;47743;-54
2021/09/22 00:29:43;;;;;;;;;37.00;33.25;;;;;17.92;54.96;102347.13;2079080;28;47248;-53
2021/09/22 00:30:44;;;;;;;;;30.25;28.00;;;;;17.90;54.92;102341.78;2079079;28;46977;-55
2021/09/22 00:31:44;;;;;;;;;35.80;31.20;;;;;17.91;55.29;102350.72;2078679;28;48386;-53
2021/09/22 00:32:46;;;;;;;;;36.50;33.25;;;;;17.89;55.01;102349.88;2073678;28;46210;-54
2021/09/22 00:33:47;;;;;;;;;33.00;30.00;;;;;17.89;55.17;102347.19;2073258;28;47377;-55
2021/09/22 00:34:47;;;;;;;;;29.25;29.25;;;;;17.87;55.22;102347.25;2081226;28;47099;-54
2021/09/22 00:35:48;;;;;;;;;36.75;32.50;;;;;17.86;55.27;102336.53;2081210;28;47159;-55
2021/09/22 00:36:49;;;;;;;;;33.75;31.00;;;;;17.85;55.29;102343.72;2082161;28;48296;-54
2021/09/22 00:37:49;;;;;;;;;37.60;32.40;;;;;17.85;55.34;102343.72;2081632;28;46066;-53
2021/09/22 00:38:50;;;;;;;;;39.00;34.75;;;;;17.85;55.21;102338.34;2081834;28;46084;-53
2021/09/22 00:39:50;;;;;;;;;35.25;32.00;;;;;17.86;55.24;102341.91;2079471;28;47215;-56
2021/09/22 00:40:51;;;;;;;;;36.75;33.00;;;;;17.85;55.26;102338.34;2082420;28;47305;-54
2021/09/22 00:41:51;;;;;;;;;39.50;33.00;;;;;17.84;55.11;102344.63;2082143;28;48140;-51
2021/09/22 00:42:52;;;;;;;;;34.00;31.00;;;;;17.83;55.06;102342.88;2082537;28;46523;-54
2021/09/22 00:43:52;;;;;;;;;32.25;31.25;;;;;17.83;55.28;102336.63;2082313;28;45390;-52
2021/09/22 00:44:56;;;;;;;;;35.25;32.25;;;;;17.82;55.21;102334.88;2082019;28;46987;-54
2021/09/22 00:46:03;;;;;;;;;31.20;30.80;;;;;17.80;55.23;102336.72;2083459;28;47482;-54
2021/09/22 00:47:04;;;;;;;;;37.20;32.60;;;;;17.80;55.21;102336.72;2077636;28;48287;-53
2021/09/22 00:48:04;;;;;;;;;35.00;31.25;;;;;17.79;55.15;102338.53;2082419;28;47107;-53
2021/09/22 00:49:05;;;;;;;;;36.00;30.75;;;;;17.78;55.20;102334.03;2083040;28;47554;-54
2021/09/22 00:50:06;;;;;;;;;40.00;34.50;;;;;17.78;55.42;102333.16;2083697;28;47138;-53
2021/09/22 00:51:08;;;;;;;;;32.60;30.00;;;;;17.77;55.32;102326.03;2078453;28;47561;-54
2021/09/22 00:52:12;;;;;;;;;36.20;33.60;;;;;17.77;55.39;102329.59;2077123;28;47371;-54
2021/09/22 00:53:12;;;;;;;;;35.00;32.20;;;;;17.78;55.48;102330.47;2079888;28;47178;-54
2021/09/22 00:54:13;;;;;;;;;29.75;24.50;;;;;17.75;55.50;102335.94;2091175;28;46221;-53
2021/09/22 00:55:14;;;;;;;;;38.25;33.00;;;;;17.74;55.37;102331.50;2078388;28;47095;-55
2021/09/22 00:56:16;;;;;;;;;41.60;33.00;;;;;17.74;55.59;102332.38;2082433;28;47284;-55
2021/09/22 00:57:18;;;;;;;;;31.20;30.80;;;;;17.73;55.38;102327.03;2083161;28;46311;-51
2021/09/22 00:58:19;;;;;;;;;37.60;34.40;;;;;17.72;55.43;102323.47;2082687;28;48273;-55
2021/09/22 00:59:19;;;;;;;;;31.50;30.75;;;;;17.72;55.54;102331.53;2083329;28;48325;-51
2021/09/22 01:00:26;;;;;;;;;40.50;35.00;;;;;17.72;55.53;102325.28;2077814;28;46967;-53
2021/09/22 01:01:27;;;;;;;;;38.40;32.20;;;;;17.72;55.66;102323.47;2082011;28;46352;-54
2021/09/22 01:02:27;;;;;;;;;33.00;29.50;;;;;17.72;55.33;102319.91;2082016;28;48386;-54
2021/09/22 01:03:28;;;;;;;;;37.75;34.00;;;;;17.72;55.31;102327.97;2075899;28;46358;-54
2021/09/22 01:04:29;;;;;;;;;32.20;30.40;;;;;17.71;55.55;102321.72;2082274;28;48404;-55
2021/09/22 01:05:30;;;;;;;;;33.50;32.00;;;;;17.72;56.01;102325.28;2082930;28;47244;-54
2021/09/22 01:06:30;;;;;;;;;36.60;34.20;;;;;17.70;55.40;102319.97;2083562;28;46225;-53
2021/09/22 01:07:31;;;;;;;;;35.25;32.25;;;;;17.70;55.36;102322.63;2077875;28;47355;-53
2021/09/22 01:08:33;;;;;;;;;33.50;31.50;;;;;17.70;55.25;102329.81;2082676;28;47743;-53
2021/09/22 01:09:33;;;;;;;;;35.00;31.80;;;;;17.68;55.51;102327.13;2082812;28;47248;-53
2021/09/22 01:10:34;;;;;;;;;38.50;34.00;;;;;17.69;55.65;102323.56;2083031;28;46937;-53
2021/09/22 01:11:35;;;;;;;;;34.00;31.50;;;;;17.68;55.55;102328.94;2082476;28;46861;-54
2021/09/22 01:12:35;;;;;;;;;33.60;31.60;;;;;17.66;55.65;102312.88;2082926;28;47576;-54
2021/09/22 01:13:36;;;;;;;;;32.00;30.00;;;;;17.66;55.34;102318.25;2082676;28;47286;-55
2021/09/22 01:14:37;;;;;;;;;37.00;32.75;;;;;17.65;55.67;102317.34;2082882;28;48118;-55
2021/09/22 01:15:42;;;;;;;;;36.25;32.00;;;;;17.64;55.66;102320.94;2083166;28;47322;-54
2021/09/22 01:16:44;;;;;;;;;36.00;32.80;;;;;17.64;55.62;102325.44;2083606;28;47318;-54
2021/09/22 01:17:45;;;;;;;;;39.40;33.20;;;;;17.64;55.62;102328.13;2081367;28;47358;-54
2021/09/22 01:18:45;;;;;;;;;30.00;29.75;;;;;17.62;55.70;102322.78;2070421;28;48659;-53
2021/09/22 01:19:46;;;;;;;;;34.25;31.50;;;;;17.63;55.70;102326.34;2081233;28;47605;-55
2021/09/22 01:20:53;;;;;;;;;31.50;30.75;;;;;17.61;55.35;102318.34;2082184;28;47101;-53
2021/09/22 01:21:55;;;;;;;;;32.60;30.60;;;;;17.60;55.56;102318.38;2082970;28;46844;-54
2021/09/22 01:22:58;;;;;;;;;37.60;32.80;;;;;17.59;55.64;102316.63;2083295;28;48608;-53
2021/09/22 01:23:58;;;;;;;;;38.40;34.40;;;;;17.58;55.65;102310.38;2082586;28;47558;-55
2021/09/22 01:24:59;;;;;;;;;37.00;32.00;;;;;17.57;55.86;102313.97;2079746;28;47229;-53
2021/09/22 01:26:00;;;;;;;;;37.40;32.80;;;;;17.57;55.72;102310.41;2080547;28;48534;-51
2021/09/22 01:27:00;;;;;;;;;36.50;32.75;;;;;17.56;55.57;102304.16;2086114;28;48268;-53
2021/09/22 01:28:02;;;;;;;;;34.25;33.25;;;;;17.55;55.66;102304.22;2083574;28;47104;-54
2021/09/22 01:29:03;;;;;;;;;37.00;31.40;;;;;17.55;55.74;102307.78;2083125;28;48111;-53
2021/09/22 01:30:04;;;;;;;;;38.40;33.40;;;;;17.54;55.73;102314.06;2083033;28;47391;-54
2021/09/22 01:31:04;;;;;;;;;36.25;33.00;;;;;17.54;55.86;102314.06;2082546;28;45272;-54
2021/09/22 01:32:05;;;;;;;;;33.50;31.00;;;;;17.54;56.07;102313.19;2074913;28;45665;-54
2021/09/22 01:33:10;;;;;;;;;35.50;32.00;;;;;17.54;55.70;102313.19;2082354;28;45456;-54
2021/09/22 01:34:13;;;;;;;;;33.40;31.40;;;;;17.54;56.00;102318.56;2081677;28;48552;-53
2021/09/22 01:35:14;;;;;;;;;35.60;32.20;;;;;17.53;55.74;102308.72;2083676;28;47309;-55
2021/09/22 01:36:15;;;;;;;;;34.75;33.00;;;;;17.53;56.08;102317.69;2074200;28;46978;-53
2021/09/22 01:37:15;;;;;;;;;37.00;34.00;;;;;17.52;56.09;102310.50;2073928;28;48257;-54
2021/09/22 01:38:26;;;;;;;;;39.50;34.75;;;;;17.52;55.99;102309.63;2079206;28;47330;-53
2021/09/22 01:39:36;;;;;;;;;34.40;31.80;;;;;17.51;55.73;102314.13;2079848;28;47927;-53
2021/09/22 01:40:36;;;;;;;;;35.80;32.00;;;;;17.50;55.69;102309.69;2080907;28;47399;-55
2021/09/22 01:41:37;;;;;;;;;35.50;29.75;;;;;17.50;55.61;102308.78;2076806;28;48207;-54
2021/09/22 01:42:39;;;;;;;;;37.25;33.50;;;;;17.49;55.78;102304.34;2083576;28;47038;-54
2021/09/22 01:43:40;;;;;;;;;35.80;32.40;;;;;17.47;55.73;102304.38;2082228;28;47611;-52
2021/09/22 01:44:40;;;;;;;;;38.60;32.40;;;;;17.46;55.85;102302.63;2081558;28;45321;-50
2021/09/22 01:45:41;;;;;;;;;35.00;31.75;;;;;17.46;55.98;102296.38;2078494;28;47314;-52
2021/09/22 01:46:41;;;;;;;;;35.50;31.50;;;;;17.46;55.92;102301.75;2074743;28;47451;-54
2021/09/22 01:47:42;;;;;;;;;31.25;29.75;;;;;17.46;55.74;102309.81;2082151;28;48100;-54
2021/09/22 01:48:43;;;;;;;;;38.25;32.75;;;;;17.44;56.17;102309.84;2080205;28;47731;-52
2021/09/22 01:49:43;;;;;;;;;37.00;34.00;;;;;17.44;56.19;102306.28;2082815;28;47123;-54
2021/09/22 01:50:46;;;;;;;;;39.00;33.50;;;;;17.43;55.85;102308.09;2082149;28;48304;-53
2021/09/22 01:51:46;;;;;;;;;37.40;33.00;;;;;17.43;55.75;102307.19;2082387;28;46209;-55
2021/09/22 01:52:50;;;;;;;;;37.00;33.50;;;;;17.42;56.05;102314.38;2082834;28;47515;-54
2021/09/22 01:53:50;;;;;;;;;33.80;30.60;;;;;17.41;55.79;102319.78;2089679;28;47646;-52
2021/09/22 01:54:51;;;;;;;;;27.75;27.50;;;;;17.38;56.00;102309.97;2082709;28;47341;-53
2021/09/22 01:55:53;;;;;;;;;39.25;34.00;;;;;17.38;55.92;102314.47;2082283;28;47177;-55
2021/09/22 01:56:54;;;;;;;;;37.00;31.80;;;;;17.35;56.11;102316.31;2079724;28;47221;-51
2021/09/22 01:57:54;;;;;;;;;33.25;32.25;;;;;17.34;55.98;102311.88;2075464;28;46039;-53
2021/09/22 01:58:55;;;;;;;;;36.00;33.75;;;;;17.33;55.89;102311.91;2082006;28;47148;-52
2021/09/22 01:59:55;;;;;;;;;38.00;32.50;;;;;17.33;56.13;102314.59;2081998;28;47426;-54
2021/09/22 02:01:00;;;;;;;;;34.25;32.75;;;;;17.32;56.05;102313.72;2075670;28;46153;-54
2021/09/22 02:02:01;;;;;;;;;35.40;30.00;;;;;17.31;56.04;102320.00;2083506;28;45055;-54
2021/09/22 02:03:02;;;;;;;;;34.75;32.50;;;;;17.32;56.13;102320.88;2080390;28;47401;-55
2021/09/22 02:04:02;;;;;;;;;42.00;33.50;;;;;17.30;56.23;102318.22;2083392;28;47413;-52
2021/09/22 02:05:03;;;;;;;;;40.50;35.00;;;;;17.30;56.03;102320.03;2081583;28;47328;-51
2021/09/22 02:06:04;;;;;;;;;35.80;32.20;;;;;17.29;55.76;102312.91;2076529;28;47400;-54
2021/09/22 02:07:04;;;;;;;;;40.00;34.50;;;;;17.28;55.85;102319.19;2082694;28;46252;-53
2021/09/22 02:08:05;;;;;;;;;36.00;31.25;;;;;17.27;56.13;102315.59;2082448;28;47352;-57
2021/09/22 02:09:05;;;;;;;;;39.50;33.50;;;;;17.26;55.86;102312.97;2081967;28;47347;-53
2021/09/22 02:10:07;;;;;;;;;35.50;32.50;;;;;17.26;56.06;102312.97;2081394;28;47960;-52
2021/09/22 02:11:07;;;;;;;;;33.60;32.00;;;;;17.24;56.08;102304.94;2082380;28;46563;-52
2021/09/22 02:12:08;;;;;;;;;42.50;36.25;;;;;17.23;56.18;102308.56;2082429;28;47430;-53
2021/09/22 02:13:09;;;;;;;;;40.60;34.20;;;;;17.22;56.20;102304.13;2079226;28;47481;-52
2021/09/22 02:14:09;;;;;;;;;44.50;35.75;;;;;17.22;56.10;102306.78;2082472;28;48325;-52
2021/09/22 02:15:10;;;;;;;;;41.75;35.25;;;;;17.22;56.04;102301.44;2074613;28;46492;-55
2021/09/22 02:16:11;;;;;;;;;38.75;35.75;;;;;17.22;56.06;102300.53;2078017;28;47064;-54
2021/09/22 02:17:11;;;;;;;;;39.50;33.50;;;;;17.19;56.33;102301.50;2081899;28;48325;-52
2021/09/22 02:18:12;;;;;;;;;42.00;34.75;;;;;17.20;56.40;102297.03;2080678;28;45575;-54
2021/09/22 02:19:12;;;;;;;;;39.50;35.75;;;;;17.19;56.05;102297.94;2079512;28;47176;-50
2021/09/22 02:20:13;;;;;;;;;47.00;38.00;;;;;17.17;56.22;102287.25;2082624;28;48036;-50
2021/09/22 02:21:14;;;;;;;;;44.60;33.60;;;;;17.18;56.28;102294.38;2081540;28;47405;-53
2021/09/22 02:22:15;;;;;;;;;42.50;34.50;;;;;17.17;56.21;102292.63;2082371;28;45043;-54
2021/09/22 02:23:15;;;;;;;;;45.00;35.25;;;;;17.16;55.88;102295.34;2082533;28;47108;-53
2021/09/22 02:24:16;;;;;;;;;39.75;35.25;;;;;17.15;56.26;102290.88;2082803;28;47218;-55
2021/09/22 02:25:17;;;;;;;;;43.25;37.00;;;;;17.13;56.49;102285.53;2081182;28;47441;-52
2021/09/22 02:26:18;;;;;;;;;44.00;37.40;;;;;17.13;56.28;102281.97;2082178;28;46682;-54
2021/09/22 02:27:18;;;;;;;;;40.75;34.25;;;;;17.12;56.16;102283.78;2086025;28;47352;-54
2021/09/22 02:28:19;;;;;;;;;43.25;37.50;;;;;17.12;56.45;102280.22;2081869;28;46563;-52
2021/09/22 02:29:21;;;;;;;;;43.75;37.25;;;;;17.12;55.97;102277.53;2081395;28;46982;-53
2021/09/22 02:30:24;;;;;;;;;46.80;38.00;;;;;17.10;56.04;102269.53;2080805;28;48551;-54
2021/09/22 02:31:24;;;;;;;;;44.60;37.60;;;;;17.09;56.62;102273.13;2081453;28;48217;-54
2021/09/22 02:32:25;;;;;;;;;42.25;35.25;;;;;17.09;56.58;102277.63;2082193;28;46959;-55
2021/09/22 02:33:25;;;;;;;;;47.00;36.75;;;;;17.10;56.47;102274.00;2082498;28;48172;-54
2021/09/22 02:34:26;;;;;;;;;37.25;34.00;;;;;17.09;56.25;102270.44;2083021;28;48076;-52
2021/09/22 02:35:26;;;;;;;;;46.25;38.00;;;;;17.08;56.58;102266.00;2082110;28;47546;-55
2021/09/22 02:36:27;;;;;;;;;42.00;36.25;;;;;17.07;56.28;102272.28;2082542;28;46899;-54
2021/09/22 02:37:28;;;;;;;;;45.00;36.00;;;;;17.07;56.46;102266.94;2081928;28;45611;-54
2021/09/22 02:38:28;;;;;;;;;39.25;35.25;;;;;17.08;56.13;102266.00;2082346;28;48164;-52
2021/09/22 02:39:29;;;;;;;;;41.00;34.50;;;;;17.09;56.38;102261.53;2081726;28;45694;-50
2021/09/22 02:40:29;;;;;;;;;44.00;35.75;;;;;17.06;56.48;102258.00;2082559;28;47367;-53
2021/09/22 02:41:30;;;;;;;;;39.75;34.25;;;;;17.06;56.64;102255.31;2077544;28;47253;-53
2021/09/22 02:42:30;;;;;;;;;47.75;38.25;;;;;17.05;56.63;102256.25;2082852;28;45382;-52
2021/09/22 02:43:31;;;;;;;;;42.00;35.25;;;;;17.05;56.38;102255.34;2082328;28;47029;-53
2021/09/22 02:44:31;;;;;;;;;43.25;36.50;;;;;17.03;56.19;102251.84;2082079;28;47381;-53
2021/09/22 02:45:32;;;;;;;;;43.75;37.00;;;;;17.03;56.55;102249.16;2082502;28;48442;-54
2021/09/22 02:46:32;;;;;;;;;42.25;34.75;;;;;17.02;56.28;102250.03;2073649;28;47035;-55
2021/09/22 02:47:33;;;;;;;;;44.75;37.75;;;;;17.01;56.43;102259.88;2073786;28;47414;-55
2021/09/22 02:48:33;;;;;;;;;34.75;32.00;;;;;17.00;56.38;102252.75;2082644;28;47397;-54
2021/09/22 02:49:34;;;;;;;;;42.25;36.00;;;;;16.99;56.66;102250.13;2081397;28;47393;-53
2021/09/22 02:50:34;;;;;;;;;39.00;33.50;;;;;16.97;56.28;102251.97;2080372;28;48069;-54
2021/09/22 02:51:35;;;;;;;;;33.50;31.25;;;;;16.97;56.49;102244.81;2079332;28;47288;-55
2021/09/22 02:52:35;;;;;;;;;41.25;36.50;;;;;16.95;56.66;102235.91;2082744;28;48184;-54
2021/09/22 02:53:36;;;;;;;;;38.75;33.75;;;;;16.95;56.65;102237.72;2082429;28;47550;-55
2021/09/22 02:54:36;;;;;;;;;36.00;33.50;;;;;16.94;56.46;102238.63;2082805;28;47549;-53
2021/09/22 02:55:37;;;;;;;;;32.25;31.75;;;;;16.92;56.26;102245.84;2082199;28;48044;-55
2021/09/22 02:56:37;;;;;;;;;44.00;37.00;;;;;16.91;56.82;102247.66;2082770;28;47334;-54
2021/09/22 02:57:38;;;;;;;;;37.25;34.00;;;;;16.88;56.51;102239.66;2082379;28;47988;-53
2021/09/22 02:58:38;;;;;;;;;47.75;38.50;;;;;16.88;56.90;102242.31;2079951;28;47234;-54
2021/09/22 02:59:39;;;;;;;;;41.50;35.00;;;;;16.87;56.91;102245.06;2076312;28;47365;-54
2021/09/22 03:00:39;;;;;;;;;44.50;36.25;;;;;16.87;56.50;102240.56;2082165;28;46161;-50
2021/09/22 03:01:40;;;;;;;;;37.50;33.75;;;;;16.85;56.58;102226.31;2081248;28;47361;-54
2021/09/22 03:02:41;;;;;;;;;46.25;38.75;;;;;16.85;56.75;102234.38;2073755;28;47703;-54
2021/09/22 03:03:42;;;;;;;;;41.60;35.60;;;;;16.85;57.04;102234.38;2082220;28;48237;-53
2021/09/22 03:04:42;;;;;;;;;42.20;35.80;;;;;16.85;56.78;102228.13;2081636;28;47804;-54
2021/09/22 03:05:44;;;;;;;;;42.00;36.50;;;;;16.83;56.69;102230.84;2081126;28;47722;-51
2021/09/22 03:06:45;;;;;;;;;40.00;33.80;;;;;16.84;56.71;102231.72;2082418;28;45596;-53
2021/09/22 03:07:45;;;;;;;;;41.25;34.75;;;;;16.82;56.92;102231.75;2081745;28;47318;-54
2021/09/22 03:08:46;;;;;;;;;40.25;33.00;;;;;16.82;56.59;102231.75;2081811;28;47178;-54
2021/09/22 03:09:46;;;;;;;;;40.75;34.75;;;;;16.82;56.95;102228.19;2081160;28;47019;-54
2021/09/22 03:10:47;;;;;;;;;38.50;34.25;;;;;16.81;56.95;102223.75;2074175;28;48049;-54
2021/09/22 03:11:47;;;;;;;;;36.75;33.25;;;;;16.79;56.96;102226.47;2075222;28;45557;-54
2021/09/22 03:12:48;;;;;;;;;38.50;33.00;;;;;16.78;57.17;102227.41;2079791;28;48244;-53
2021/09/22 03:13:49;;;;;;;;;39.50;34.25;;;;;16.77;56.70;102228.31;2081770;28;46764;-54
2021/09/22 03:14:51;;;;;;;;;41.75;34.50;;;;;16.77;56.90;102231.88;2080948;28;47228;-54
2021/09/22 03:15:52;;;;;;;;;35.40;32.00;;;;;16.75;56.78;102220.28;2074834;28;48555;-51
2021/09/22 03:16:53;;;;;;;;;42.00;32.75;;;;;16.76;57.24;102229.22;2081419;28;46823;-54
2021/09/22 03:17:54;;;;;;;;;31.60;31.20;;;;;16.74;57.15;102228.38;2073326;28;47203;-54
2021/09/22 03:18:54;;;;;;;;;35.75;33.50;;;;;16.74;57.09;102225.69;2081704;28;45404;-54
2021/09/22 03:19:55;;;;;;;;;39.75;32.75;;;;;16.73;56.90;102224.81;2082569;28;46056;-54
2021/09/22 03:20:55;;;;;;;;;32.50;29.75;;;;;16.73;56.88;102227.50;2070936;28;46834;-54
2021/09/22 03:21:56;;;;;;;;;32.00;30.75;;;;;16.73;57.00;102224.81;2064906;28;46982;-55
2021/09/22 03:22:56;;;;;;;;;44.50;34.00;;;;;16.72;57.22;102222.16;2083125;28;47347;-53
2021/09/22 03:23:57;;;;;;;;;40.00;33.75;;;;;16.72;56.88;102217.69;2078321;28;47360;-53
2021/09/22 03:24:57;;;;;;;;;42.50;35.50;;;;;16.73;56.83;102231.97;2082057;28;45427;-52
2021/09/22 03:25:58;;;;;;;;;36.75;33.25;;;;;16.72;57.43;102224.84;2082652;28;47368;-54
2021/09/22 03:26:59;;;;;;;;;32.75;30.75;;;;;16.73;57.00;102231.97;2081429;28;45519;-54
2021/09/22 03:27:59;;;;;;;;;35.75;32.75;;;;;16.72;56.95;102220.38;2073625;28;47352;-53
2021/09/22 03:29:00;;;;;;;;;38.50;33.50;;;;;16.72;56.96;102231.09;2076914;28;47141;-53
2021/09/22 03:30:01;;;;;;;;;41.50;36.50;;;;;16.72;56.89;102222.16;2074329;28;48210;-54
2021/09/22 03:31:01;;;;;;;;;30.50;28.00;;;;;16.71;56.81;102221.28;2073348;28;47233;-53
2021/09/22 03:32:02;;;;;;;;;37.00;34.25;;;;;16.70;57.06;102219.53;2065820;28;48126;-54
2021/09/22 03:33:03;;;;;;;;;37.50;34.00;;;;;16.71;57.29;102225.78;2074350;28;47393;-55
2021/09/22 03:34:03;;;;;;;;;34.25;31.50;;;;;16.69;56.89;102219.56;2080944;28;45627;-53
2021/09/22 03:35:05;;;;;;;;;42.75;35.00;;;;;16.68;57.31;102218.69;2073755;28;47664;-53
2021/09/22 03:36:05;;;;;;;;;40.20;35.40;;;;;16.70;56.95;102230.25;2075025;28;48517;-54
2021/09/22 03:37:06;;;;;;;;;36.75;32.75;;;;;16.69;57.07;102217.75;2082167;28;48346;-51
2021/09/22 03:38:07;;;;;;;;;41.00;35.75;;;;;16.69;57.18;102225.81;2082501;28;47173;-54
2021/09/22 03:39:07;;;;;;;;;32.25;31.50;;;;;16.68;57.50;102224.03;2081967;28;46257;-54
2021/09/22 03:40:09;;;;;;;;;43.25;37.00;;;;;16.67;57.11;102224.97;2082354;28;46930;-53
2021/09/22 03:41:09;;;;;;;;;41.00;34.60;;;;;16.67;57.31;102233.00;2082168;28;47772;-54
2021/09/22 03:42:10;;;;;;;;;42.00;37.00;;;;;16.68;57.03;102236.56;2081985;28;45511;-53
2021/09/22 03:43:11;;;;;;;;;39.00;31.40;;;;;16.66;56.87;102228.53;2075255;28;47307;-52
2021/09/22 03:44:11;;;;;;;;;35.00;32.25;;;;;16.66;57.25;102230.34;2082317;28;47130;-51
2021/09/22 03:45:12;;;;;;;;;40.75;35.25;;;;;16.64;57.15;102227.69;2081668;28;45099;-50
2021/09/22 03:46:12;;;;;;;;;45.75;37.50;;;;;16.65;57.25;102233.94;2081781;28;48050;-54
2021/09/22 03:47:13;;;;;;;;;42.50;34.25;;;;;16.63;56.98;102233.06;2081874;28;48273;-54
2021/09/22 03:48:13;;;;;;;;;36.75;33.75;;;;;16.62;57.05;102234.84;2080002;28;47920;-54
2021/09/22 03:49:14;;;;;;;;;38.75;33.50;;;;;16.61;56.98;102229.53;2081492;28;46063;-55
2021/09/22 03:50:15;;;;;;;;;37.00;34.75;;;;;16.60;57.06;102230.44;2081828;28;47370;-53
2021/09/22 03:51:16;;;;;;;;;41.40;34.80;;;;;16.59;57.06;102229.56;2079167;28;48329;-53
2021/09/22 03:52:16;;;;;;;;;39.25;34.50;;;;;16.59;57.31;102228.69;2081056;28;47285;-53
2021/09/22 03:53:19;;;;;;;;;36.50;33.00;;;;;16.59;57.39;102236.72;2081321;28;47384;-53
2021/09/22 03:54:20;;;;;;;;;44.40;34.00;;;;;16.58;57.39;102233.16;2082902;28;45380;-53
2021/09/22 03:55:21;;;;;;;;;42.75;36.75;;;;;16.58;57.24;102232.28;2076212;28;48304;-54
2021/09/22 03:56:21;;;;;;;;;41.40;35.20;;;;;16.58;57.57;102235.84;2080549;28;48136;-52
2021/09/22 03:57:22;;;;;;;;;37.25;34.25;;;;;16.58;57.10;102234.97;2081340;28;47704;-54
2021/09/22 03:58:22;;;;;;;;;39.75;33.75;;;;;16.57;57.29;102236.78;2081108;28;47233;-54
2021/09/22 03:59:23;;;;;;;;;34.25;31.25;;;;;16.58;57.13;102234.97;2081662;28;46254;-52
2021/09/22 04:00:23;;;;;;;;;40.25;33.25;;;;;16.58;57.42;102243.00;2076343;28;45408;-51
2021/09/22 04:01:24;;;;;;;;;38.25;34.25;;;;;16.58;57.36;102243.91;2080213;28;47745;-54
2021/09/22 04:02:24;;;;;;;;;41.50;36.50;;;;;16.57;57.51;102241.25;2082315;28;48257;-53
2021/09/22 04:03:25;;;;;;;;;38.75;34.50;;;;;16.57;57.19;102238.56;2082013;28;47188;-54
2021/09/22 04:04:25;;;;;;;;;37.50;33.50;;;;;16.57;57.46;102247.50;2080959;28;46868;-53
2021/09/22 04:05:26;;;;;;;;;41.00;35.25;;;;;16.56;57.18;102239.50;2082069;28;48134;-55
2021/09/22 04:06:26;;;;;;;;;40.75;34.50;;;;;16.57;57.47;102249.28;2077165;28;47325;-54
2021/09/22 04:07:27;;;;;;;;;39.00;34.75;;;;;16.55;57.14;102243.97;2079127;28;47146;-55
2021/09/22 04:08:27;;;;;;;;;38.00;31.50;;;;;16.55;57.69;102249.31;2082421;28;46403;-54
2021/09/22 04:09:28;;;;;;;;;41.00;34.75;;;;;16.55;57.16;102245.78;2078387;28;47253;-53
2021/09/22 04:10:29;;;;;;;;;37.25;34.50;;;;;16.54;57.29;102250.25;2082696;28;46057;-52
2021/09/22 04:11:30;;;;;;;;;39.60;34.00;;;;;16.54;57.20;102246.69;2082273;28;48102;-53
2021/09/22 04:12:31;;;;;;;;;40.20;35.40;;;;;16.54;56.91;102254.72;2082261;28;48345;-53
2021/09/22 04:13:32;;;;;;;;;45.00;35.25;;;;;16.52;57.26;102248.53;2082770;28;48216;-51
2021/09/22 04:14:33;;;;;;;;;35.75;32.25;;;;;16.50;57.16;102251.22;2073826;28;47999;-54
2021/09/22 04:15:33;;;;;;;;;34.80;31.80;;;;;16.49;57.07;102247.66;2073917;28;47456;-51
2021/09/22 04:16:34;;;;;;;;;43.00;35.50;;;;;16.50;57.19;102256.56;2074684;28;48191;-53
2021/09/22 04:17:35;;;;;;;;;38.75;34.25;;;;;16.49;57.28;102254.81;2079742;28;47430;-52
2021/09/22 04:18:36;;;;;;;;;41.50;36.50;;;;;16.49;57.23;102254.81;2073921;28;46850;-54
2021/09/22 04:19:37;;;;;;;;;41.40;34.20;;;;;16.49;57.77;102254.81;2082436;28;47494;-55
2021/09/22 04:20:37;;;;;;;;;43.75;35.50;;;;;16.49;57.20;102257.47;2084194;28;46877;-52
2021/09/22 04:21:38;;;;;;;;;40.50;34.75;;;;;16.49;57.20;102255.69;2083976;28;47349;-53
2021/09/22 04:22:39;;;;;;;;;37.25;33.75;;;;;16.49;57.69;102254.81;2083408;28;45570;-54
2021/09/22 04:23:40;;;;;;;;;41.60;36.40;;;;;16.49;57.32;102255.69;2082947;28;47278;-54
2021/09/22 04:24:40;;;;;;;;;42.00;35.25;;;;;16.48;57.58;102251.25;2068569;28;47056;-54
2021/09/22 04:25:41;;;;;;;;;41.50;36.75;;;;;16.48;57.66;102253.94;2058952;28;47004;-54
2021/09/22 04:26:41;;;;;;;;;39.50;34.50;;;;;16.46;57.50;102250.41;2076013;28;47230;-53
2021/09/22 04:27:42;;;;;;;;;39.00;33.00;;;;;16.47;57.41;102248.59;2091541;28;46942;-53
2021/09/22 04:28:42;;;;;;;;;42.00;34.00;;;;;16.46;57.29;102253.09;2083183;28;46064;-51
2021/09/22 04:29:43;;;;;;;;;36.75;33.75;;;;;16.45;57.43;102245.06;2075581;28;47344;-55
2021/09/22 04:30:43;;;;;;;;;31.50;31.00;;;;;16.44;57.60;102252.25;2081332;28;48460;-51
2021/09/22 04:31:44;;;;;;;;;44.25;36.25;;;;;16.45;57.95;102254.00;2080444;28;46351;-55
2021/09/22 04:32:44;;;;;;;;;41.50;36.75;;;;;16.45;57.40;102255.78;2092070;28;47513;-53
2021/09/22 04:33:45;;;;;;;;;37.00;34.25;;;;;16.44;57.53;102254.91;2083419;28;47266;-67
2021/09/22 04:34:45;;;;;;;;;37.25;34.75;;;;;16.45;57.59;102253.13;2078363;28;47669;-67
2021/09/22 04:35:46;;;;;;;;;38.00;33.75;;;;;16.46;58.05;102252.19;2083929;28;47328;-68
2021/09/22 04:36:48;;;;;;;;;35.25;32.25;;;;;16.46;57.58;102258.44;2091832;28;47261;-68